AFR1U KJFK-LFPG
Flight info
| Callsign | AFR1U |
|---|---|
| Flight time | N/A |
| Altitude | 35000 |
| Route | MERIT DCT HFD DCT PUT DCT WITCH DCT ALLEX N535B UMESI/M084F370 NATU OLGON/N0483F370 DCT ENJEX DCT HOTXI DCT SFD UM605 BIBAX |
| Aircraft | B77W/H-SDE1E2E3FGHIJ2J3J4J5M1RWXY/LB1D1 |
Departure
| Time | 2026-05-08 22:59 |
|---|---|
| Airport | John F. Kennedy International Airport (KJFK) |
Arrival
| Time | N/A |
|---|---|
| Airport | Charles de Gaulle International Airport (LFPG) |
| Time | Latitude | Longitude | Altitude | Speed | Heading |
|---|---|---|---|---|---|
| 2026-05-08 21:57 | 40.64169 | -73.79156 | 29 ft | 0 kts | 307° |
| 2026-05-08 21:58 | 40.64168 | -73.79156 | 29 ft | 0 kts | 307° |
| 2026-05-08 21:59 | 40.64168 | -73.79155 | 29 ft | 0 kts | 307° |
| 2026-05-08 22:41 | 40.64166 | -73.79151 | 30 ft | 3 kts | 307° |
| 2026-05-08 22:42 | 40.64149 | -73.79122 | 29 ft | 3 kts | 307° |
| 2026-05-08 22:42 | 40.64137 | -73.79100 | 28 ft | 3 kts | 302° |
| 2026-05-08 22:42 | 40.64130 | -73.79071 | 28 ft | 3 kts | 247° |
| 2026-05-08 22:42 | 40.64132 | -73.79065 | 27 ft | 4 kts | 237° |
| 2026-05-08 22:43 | 40.64113 | -73.79089 | 29 ft | 4 kts | 219° |
| 2026-05-08 22:43 | 40.64095 | -73.79110 | 29 ft | 2 kts | 224° |
| 2026-05-08 22:43 | 40.64077 | -73.79132 | 29 ft | 4 kts | 224° |
| 2026-05-08 22:43 | 40.64058 | -73.79157 | 29 ft | 4 kts | 224° |
| 2026-05-08 22:44 | 40.64039 | -73.79182 | 29 ft | 4 kts | 224° |
| 2026-05-08 22:44 | 40.64033 | -73.79190 | 29 ft | 9 kts | 224° |
| 2026-05-08 22:49 | 40.63969 | -73.79234 | 28 ft | 9 kts | 164° |
| 2026-05-08 22:49 | 40.63923 | -73.79174 | 29 ft | 9 kts | 124° |
| 2026-05-08 22:50 | 40.63889 | -73.79099 | 27 ft | 9 kts | 120° |
| 2026-05-08 22:50 | 40.63856 | -73.79025 | 28 ft | 9 kts | 121° |
| 2026-05-08 22:50 | 40.63810 | -73.78924 | 29 ft | 18 kts | 121° |
| 2026-05-08 22:50 | 40.63731 | -73.78750 | 34 ft | 19 kts | 121° |
| 2026-05-08 22:51 | 40.63662 | -73.78599 | 33 ft | 19 kts | 121° |
| 2026-05-08 22:51 | 40.63595 | -73.78451 | 34 ft | 19 kts | 121° |
| 2026-05-08 22:51 | 40.63527 | -73.78300 | 30 ft | 19 kts | 121° |
| 2026-05-08 22:51 | 40.63479 | -73.78196 | 30 ft | 12 kts | 121° |
| 2026-05-08 22:52 | 40.63436 | -73.78101 | 29 ft | 14 kts | 121° |
| 2026-05-08 22:52 | 40.63374 | -73.77958 | 29 ft | 20 kts | 119° |
| 2026-05-08 22:52 | 40.63306 | -73.77801 | 32 ft | 20 kts | 120° |
| 2026-05-08 22:52 | 40.63234 | -73.77643 | 33 ft | 20 kts | 121° |
| 2026-05-08 22:53 | 40.63185 | -73.77537 | 35 ft | 8 kts | 121° |
| 2026-05-08 22:53 | 40.63157 | -73.77473 | 34 ft | 8 kts | 120° |
| 2026-05-08 22:53 | 40.63125 | -73.77403 | 33 ft | 10 kts | 120° |
| 2026-05-08 22:53 | 40.63110 | -73.77369 | 33 ft | 1 kts | 121° |
| 2026-05-08 22:54 | 40.63102 | -73.77352 | 32 ft | 3 kts | 121° |
| 2026-05-08 22:54 | 40.63085 | -73.77316 | 32 ft | 6 kts | 121° |
| 2026-05-08 22:54 | 40.63072 | -73.77286 | 32 ft | 6 kts | 121° |
| 2026-05-08 22:54 | 40.63044 | -73.77225 | 32 ft | 5 kts | 120° |
| 2026-05-08 22:55 | 40.63029 | -73.77195 | 31 ft | 6 kts | 131° |
| 2026-05-08 22:55 | 40.63005 | -73.77188 | 31 ft | 0 kts | 186° |
| 2026-05-08 22:55 | 40.62998 | -73.77192 | 31 ft | 2 kts | 200° |
| 2026-05-08 22:55 | 40.62983 | -73.77201 | 31 ft | 2 kts | 203° |
| 2026-05-08 22:56 | 40.62967 | -73.77210 | 31 ft | 3 kts | 207° |
| 2026-05-08 22:56 | 40.62952 | -73.77220 | 31 ft | 3 kts | 208° |
| 2026-05-08 22:56 | 40.62944 | -73.77226 | 31 ft | 0 kts | 208° |
| 2026-05-08 22:57 | 40.62923 | -73.77241 | 31 ft | 11 kts | 208° |
| 2026-05-08 22:57 | 40.62877 | -73.77278 | 30 ft | 5 kts | 220° |
| 2026-05-08 22:57 | 40.62872 | -73.77320 | 30 ft | 5 kts | 281° |
| 2026-05-08 22:58 | 40.62885 | -73.77362 | 32 ft | 5 kts | 296° |
| 2026-05-08 22:58 | 40.62904 | -73.77407 | 32 ft | 11 kts | 300° |
| 2026-05-08 22:58 | 40.63019 | -73.77660 | 35 ft | 66 kts | 301° |
| 2026-05-08 22:58 | 40.63394 | -73.78488 | 26 ft | 140 kts | 301° |
| 2026-05-08 22:59 | 40.63989 | -73.79794 | 145 ft | 182 kts | 304° |
| 2026-05-08 22:59 | 40.64645 | -73.81251 | 701 ft | 190 kts | 301° |
| 2026-05-08 22:59 | 40.65320 | -73.82756 | 1545 ft | 189 kts | 297° |
| 2026-05-08 22:59 | 40.65953 | -73.84250 | 2422 ft | 184 kts | 295° |
| 2026-05-08 23:00 | 40.66373 | -73.85845 | 2845 ft | 198 kts | 273° |
| 2026-05-08 23:00 | 40.66013 | -73.87750 | 2992 ft | 230 kts | 240° |
| 2026-05-08 23:00 | 40.64811 | -73.89217 | 3616 ft | 242 kts | 219° |
| 2026-05-08 23:00 | 40.63438 | -73.90491 | 4395 ft | 242 kts | 218° |
| 2026-05-08 23:01 | 40.62075 | -73.91702 | 5397 ft | 234 kts | 208° |
| 2026-05-08 23:01 | 40.60430 | -73.92122 | 5997 ft | 257 kts | 182° |
| 2026-05-08 23:01 | 40.58632 | -73.91499 | 6589 ft | 280 kts | 158° |
| 2026-05-08 23:01 | 40.57079 | -73.89831 | 7240 ft | 298 kts | 131° |
| 2026-05-08 23:02 | 40.56157 | -73.87377 | 7915 ft | 310 kts | 104° |
| 2026-05-08 23:02 | 40.56030 | -73.84537 | 8638 ft | 314 kts | 83° |
| 2026-05-08 23:02 | 40.56334 | -73.81655 | 9390 ft | 318 kts | 78° |
| 2026-05-08 23:02 | 40.56713 | -73.78794 | 10099 ft | 323 kts | 77° |
| 2026-05-08 23:03 | 40.57110 | -73.75817 | 10520 ft | 340 kts | 77° |
| 2026-05-08 23:03 | 40.57648 | -73.72667 | 10671 ft | 357 kts | 64° |
| 2026-05-08 23:03 | 40.59026 | -73.69956 | 10836 ft | 367 kts | 36° |
| 2026-05-08 23:03 | 40.61226 | -73.68258 | 11163 ft | 367 kts | 12° |
| 2026-05-08 23:04 | 40.63673 | -73.67357 | 11906 ft | 372 kts | 7° |
| 2026-05-08 23:04 | 40.66207 | -73.66454 | 12982 ft | 375 kts | 9° |
| 2026-05-08 23:04 | 40.68701 | -73.65337 | 14093 ft | 380 kts | 13° |
| 2026-05-08 23:04 | 40.71140 | -73.64003 | 15029 ft | 387 kts | 16° |
| 2026-05-08 23:05 | 40.73595 | -73.62456 | 15871 ft | 395 kts | 18° |
| 2026-05-08 23:05 | 40.76071 | -73.60751 | 16667 ft | 405 kts | 20° |
| 2026-05-08 23:05 | 40.78560 | -73.58948 | 17343 ft | 412 kts | 21° |
| 2026-05-08 23:05 | 40.81057 | -73.57089 | 18193 ft | 418 kts | 21° |
| 2026-05-08 23:06 | 40.83617 | -73.55159 | 18960 ft | 423 kts | 21° |
| 2026-05-08 23:06 | 40.86164 | -73.53232 | 19691 ft | 428 kts | 21° |
| 2026-05-08 23:06 | 40.88777 | -73.51257 | 20387 ft | 434 kts | 21° |
| 2026-05-08 23:06 | 40.91393 | -73.49280 | 21059 ft | 439 kts | 21° |
| 2026-05-08 23:07 | 40.94081 | -73.47250 | 21733 ft | 445 kts | 21° |
| 2026-05-08 23:07 | 40.96768 | -73.45222 | 22397 ft | 451 kts | 21° |
| 2026-05-08 23:07 | 40.99527 | -73.43137 | 23083 ft | 456 kts | 21° |
| 2026-05-08 23:07 | 41.02282 | -73.41054 | 23697 ft | 461 kts | 21° |
| 2026-05-08 23:08 | 41.05096 | -73.38924 | 24252 ft | 465 kts | 20° |
| 2026-05-08 23:08 | 41.07897 | -73.36801 | 24814 ft | 469 kts | 20° |
| 2026-05-08 23:08 | 41.10745 | -73.34640 | 25387 ft | 472 kts | 20° |
| 2026-05-08 23:08 | 41.13625 | -73.32454 | 25919 ft | 476 kts | 20° |
| 2026-05-08 23:09 | 41.16488 | -73.30279 | 26431 ft | 480 kts | 20° |
| 2026-05-08 23:09 | 41.19407 | -73.28059 | 26958 ft | 484 kts | 20° |
| 2026-05-08 23:09 | 41.22352 | -73.25817 | 27457 ft | 489 kts | 20° |
| 2026-05-08 23:09 | 41.25324 | -73.23550 | 27925 ft | 492 kts | 20° |
| 2026-05-08 23:10 | 41.28274 | -73.21295 | 28367 ft | 496 kts | 21° |
| 2026-05-08 23:10 | 41.31198 | -73.18767 | 28790 ft | 509 kts | 28° |
| 2026-05-08 23:10 | 41.33956 | -73.15664 | 29195 ft | 522 kts | 35° |
| 2026-05-08 23:10 | 41.36497 | -73.12205 | 29644 ft | 531 kts | 41° |
| 2026-05-08 23:11 | 41.38827 | -73.08291 | 30011 ft | 540 kts | 46° |
| 2026-05-08 23:11 | 41.41018 | -73.04283 | 30366 ft | 542 kts | 47° |
| 2026-05-08 23:11 | 41.43218 | -73.00182 | 30807 ft | 542 kts | 47° |
| 2026-05-08 23:11 | 41.45391 | -72.96119 | 31258 ft | 541 kts | 47° |
| 2026-05-08 23:12 | 41.47582 | -72.92039 | 31686 ft | 540 kts | 47° |
| 2026-05-08 23:12 | 41.49800 | -72.87937 | 32094 ft | 540 kts | 47° |
| 2026-05-08 23:12 | 41.51987 | -72.83914 | 32500 ft | 539 kts | 47° |
| 2026-05-08 23:12 | 41.54201 | -72.79853 | 32923 ft | 539 kts | 47° |
| 2026-05-08 23:13 | 41.56384 | -72.75852 | 33333 ft | 538 kts | 47° |
| 2026-05-08 23:13 | 41.58592 | -72.71804 | 33728 ft | 538 kts | 47° |
| 2026-05-08 23:13 | 41.60801 | -72.67747 | 34081 ft | 538 kts | 47° |
| 2026-05-08 23:13 | 41.62991 | -72.63720 | 34370 ft | 539 kts | 47° |
| 2026-05-08 23:14 | 41.65203 | -72.59642 | 34640 ft | 539 kts | 47° |
| 2026-05-08 23:14 | 41.67395 | -72.55595 | 34860 ft | 542 kts | 47° |
| 2026-05-08 23:14 | 41.71834 | -72.47384 | 34932 ft | 544 kts | 48° |
| 2026-05-08 23:15 | 41.76237 | -72.39199 | 34923 ft | 537 kts | 47° |
| 2026-05-08 23:15 | 41.80591 | -72.31092 | 34933 ft | 537 kts | 47° |
| 2026-05-08 23:16 | 41.84941 | -72.22982 | 34972 ft | 537 kts | 48° |
| 2026-05-08 23:16 | 41.89301 | -72.14830 | 34951 ft | 539 kts | 48° |
| 2026-05-08 23:17 | 41.93679 | -72.06619 | 34940 ft | 539 kts | 48° |
| 2026-05-08 23:17 | 41.98029 | -71.98434 | 34935 ft | 539 kts | 48° |
| 2026-05-08 23:18 | 42.02376 | -71.90236 | 34920 ft | 540 kts | 49° |
| 2026-05-08 23:18 | 42.06720 | -71.82021 | 34938 ft | 539 kts | 49° |
| 2026-05-08 23:19 | 42.11050 | -71.73808 | 34937 ft | 538 kts | 49° |
| 2026-05-08 23:19 | 42.15406 | -71.65527 | 34944 ft | 538 kts | 49° |
| 2026-05-08 23:20 | 42.19720 | -71.57303 | 34922 ft | 538 kts | 49° |
| 2026-05-08 23:20 | 42.24027 | -71.49066 | 34910 ft | 538 kts | 49° |
| 2026-05-08 23:21 | 42.28348 | -71.40782 | 34909 ft | 538 kts | 49° |
| 2026-05-08 23:21 | 42.32647 | -71.32518 | 34908 ft | 539 kts | 49° |
| 2026-05-08 23:22 | 42.36942 | -71.24239 | 34903 ft | 538 kts | 49° |
| 2026-05-08 23:22 | 42.41232 | -71.15946 | 34900 ft | 537 kts | 49° |
| 2026-05-08 23:23 | 42.45503 | -71.07667 | 34923 ft | 537 kts | 50° |
| 2026-05-08 23:23 | 42.49759 | -70.99395 | 34890 ft | 536 kts | 50° |
| 2026-05-08 23:24 | 42.54021 | -70.91086 | 34887 ft | 536 kts | 50° |
| 2026-05-08 23:24 | 42.58254 | -70.82814 | 34889 ft | 535 kts | 50° |
| 2026-05-08 23:25 | 42.62499 | -70.74495 | 34895 ft | 535 kts | 50° |
| 2026-05-08 23:25 | 42.66716 | -70.66206 | 34886 ft | 534 kts | 50° |
| 2026-05-08 23:26 | 42.70948 | -70.57864 | 34885 ft | 534 kts | 50° |
| 2026-05-08 23:26 | 42.75153 | -70.49555 | 34900 ft | 534 kts | 51° |
| 2026-05-08 23:27 | 42.79364 | -70.41211 | 34886 ft | 533 kts | 51° |
| 2026-05-08 23:27 | 42.83543 | -70.32903 | 34889 ft | 533 kts | 51° |
| 2026-05-08 23:28 | 42.87735 | -70.24549 | 34890 ft | 532 kts | 51° |
| 2026-05-08 23:28 | 42.91912 | -70.16202 | 34880 ft | 532 kts | 51° |
| 2026-05-08 23:29 | 42.96071 | -70.07865 | 34897 ft | 532 kts | 51° |
| 2026-05-08 23:29 | 43.00213 | -69.99540 | 34907 ft | 532 kts | 51° |
| 2026-05-08 23:30 | 43.04354 | -69.91196 | 34903 ft | 532 kts | 51° |
| 2026-05-08 23:30 | 43.08518 | -69.82780 | 34886 ft | 532 kts | 51° |
| 2026-05-08 23:31 | 43.12657 | -69.74392 | 34908 ft | 533 kts | 51° |
| 2026-05-08 23:31 | 43.16798 | -69.65976 | 34917 ft | 534 kts | 51° |
| 2026-05-08 23:32 | 43.20941 | -69.57529 | 34898 ft | 535 kts | 51° |
| 2026-05-08 23:32 | 43.25069 | -69.49089 | 34902 ft | 534 kts | 52° |
| 2026-05-08 23:33 | 43.29221 | -69.40575 | 34892 ft | 534 kts | 52° |
| 2026-05-08 23:33 | 43.33343 | -69.32099 | 34901 ft | 534 kts | 52° |
| 2026-05-08 23:34 | 43.37447 | -69.23637 | 34897 ft | 534 kts | 52° |
| 2026-05-08 23:34 | 43.41571 | -69.15109 | 34899 ft | 534 kts | 52° |
| 2026-05-08 23:35 | 43.45669 | -69.06611 | 34913 ft | 534 kts | 52° |
| 2026-05-08 23:35 | 43.49777 | -68.98066 | 34897 ft | 534 kts | 52° |
| 2026-05-08 23:36 | 43.53860 | -68.89547 | 34894 ft | 533 kts | 52° |
| 2026-05-08 23:36 | 43.57931 | -68.81030 | 34917 ft | 533 kts | 52° |
| 2026-05-08 23:37 | 43.61999 | -68.72495 | 34895 ft | 532 kts | 53° |
| 2026-05-08 23:37 | 43.66047 | -68.63975 | 34889 ft | 532 kts | 53° |
| 2026-05-08 23:38 | 43.70107 | -68.55408 | 34891 ft | 532 kts | 53° |
| 2026-05-08 23:38 | 43.74157 | -68.46835 | 34899 ft | 532 kts | 53° |
| 2026-05-08 23:39 | 43.78186 | -68.38281 | 34881 ft | 531 kts | 53° |